Time;durP1;ratioP1;P1;durP2;ratioP2;P2;SDS_P1;SDS_P2;PMS_P1;PMS_P2;Temp;Humidity;BMP_temperature;BMP_pressure;BME280_temperature;BME280_humidity;BME280_pressure;Samples;Min_cycle;Max_cycle;Signal;HPM_P1;HPM_P2
2023/06/30 00:00:50;;;;;;;8.98;7.38;;;;;;;;;;5057475;28;20037;-22
2023/06/30 00:03:16;;;;;;;8.60;7.80;;;;;;;;;;5057036;28;20140;-22
2023/06/30 00:05:42;;;;;;;11.30;7.20;;;;;;;;;;5057142;28;20037;-22
2023/06/30 00:08:08;;;;;;;10.73;7.80;;;;;;;;;;5057315;28;20100;-22
2023/06/30 00:10:35;;;;;;;8.50;7.43;;;;;;;;;;5057076;28;20025;-23
2023/06/30 00:13:01;;;;;;;8.35;7.55;;;;;;;;;;5039286;28;20494;-22
2023/06/30 00:15:27;;;;;;;9.75;6.82;;;;;;;;;;5039355;28;20064;-22
2023/06/30 00:17:53;;;;;;;7.55;6.75;;;;;;;;;;5056882;28;20095;-22
2023/06/30 00:20:21;;;;;;;7.95;7.25;;;;;;;;;;5056887;28;20047;-23
2023/06/30 00:22:47;;;;;;;8.82;8.00;;;;;;;;;;5039813;28;20033;-22
2023/06/30 00:25:13;;;;;;;8.40;7.53;;;;;;;;;;5056818;28;20029;-22
2023/06/30 00:27:39;;;;;;;11.15;8.02;;;;;;;;;;5056739;28;20029;-23
2023/06/30 00:30:06;;;;;;;8.32;7.63;;;;;;;;;;5056991;28;20029;-22
2023/06/30 00:32:32;;;;;;;11.27;8.43;;;;;;;;;;5056483;28;20098;-23
2023/06/30 00:34:59;;;;;;;8.85;7.53;;;;;;;;;;5055533;28;20052;-23
2023/06/30 00:37:25;;;;;;;7.88;7.07;;;;;;;;;;5056617;28;20325;-23
2023/06/30 00:39:51;;;;;;;7.00;6.40;;;;;;;;;;5056505;28;20032;-23
2023/06/30 00:42:18;;;;;;;7.57;6.88;;;;;;;;;;5056426;28;20526;-23
2023/06/30 00:44:44;;;;;;;10.95;7.28;;;;;;;;;;5057218;28;20079;-21
2023/06/30 00:47:10;;;;;;;8.95;7.45;;;;;;;;;;5056406;28;20088;-21
2023/06/30 00:49:36;;;;;;;8.48;6.75;;;;;;;;;;5056606;28;20449;-22
2023/06/30 00:52:03;;;;;;;9.27;6.47;;;;;;;;;;5056209;28;20079;-23
2023/06/30 00:54:29;;;;;;;7.32;6.72;;;;;;;;;;5056481;28;20032;-23
2023/06/30 00:56:58;;;;;;;7.50;6.63;;;;;;;;;;5056020;28;20025;-23
2023/06/30 00:59:24;;;;;;;9.13;6.82;;;;;;;;;;5056404;28;20032;-22
2023/06/30 01:01:56;;;;;;;7.85;6.95;;;;;;;;;;5055982;28;20151;-22
2023/06/30 01:04:36;;;;;;;7.78;6.95;;;;;;;;;;5055869;28;20044;-21
2023/06/30 01:07:06;;;;;;;7.05;6.35;;;;;;;;;;5056546;28;20025;-24
2023/06/30 01:09:37;;;;;;;7.25;6.47;;;;;;;;;;5055969;28;20039;-22
2023/06/30 01:12:03;;;;;;;;;;;;;;;;;;5056554;28;20452;-22
2023/06/30 01:14:30;;;;;;;6.50;5.97;;;;;;;;;;5055868;28;19911;-35
2023/06/30 01:16:56;;;;;;;7.13;6.53;;;;;;;;;;5056005;28;20029;-22
2023/06/30 01:19:35;;;;;;;8.48;6.60;;;;;;;;;;5056001;28;20049;-23
2023/06/30 01:22:14;;;;;;;8.07;7.28;;;;;;;;;;5055893;28;20422;-22
2023/06/30 01:24:43;;;;;;;7.45;6.70;;;;;;;;;;5038056;28;20456;-23
2023/06/30 01:27:12;;;;;;;10.43;6.63;;;;;;;;;;5055586;28;20032;-22
2023/06/30 01:29:42;;;;;;;7.20;6.55;;;;;;;;;;5055577;28;20021;-23
2023/06/30 01:32:08;;;;;;;7.00;6.30;;;;;;;;;;5055389;28;20033;-23
2023/06/30 01:34:34;;;;;;;6.85;6.30;;;;;;;;;;5055977;28;20460;-24
2023/06/30 01:37:01;;;;;;;6.65;6.05;;;;;;;;;;5055627;28;20394;-23
2023/06/30 01:39:27;;;;;;;8.82;6.82;;;;;;;;;;5055627;28;20017;-22
2023/06/30 01:41:53;;;;;;;6.70;5.85;;;;;;;;;;5055203;28;20032;-23
2023/06/30 01:44:20;;;;;;;7.38;6.65;;;;;;;;;;5037347;28;20021;-23
2023/06/30 01:46:46;;;;;;;7.10;6.40;;;;;;;;;;5055489;28;20029;-23
2023/06/30 01:49:13;;;;;;;6.90;6.20;;;;;;;;;;5055224;28;20078;-23
2023/06/30 01:51:39;;;;;;;7.38;6.63;;;;;;;;;;5055439;28;20036;-22
2023/06/30 01:54:06;;;;;;;10.60;6.97;;;;;;;;;;5055069;28;20021;-22
2023/06/30 01:56:32;;;;;;;7.43;6.57;;;;;;;;;;5037432;28;20518;-23
2023/06/30 01:58:58;;;;;;;6.93;6.07;;;;;;;;;;5055396;28;20025;-23
2023/06/30 02:01:24;;;;;;;8.95;6.85;;;;;;;;;;5037455;28;20378;-23
2023/06/30 02:03:51;;;;;;;8.95;6.75;;;;;;;;;;5054659;28;20073;-24
2023/06/30 02:06:17;;;;;;;7.60;6.85;;;;;;;;;;5055201;28;20048;-23
2023/06/30 02:08:43;;;;;;;7.00;6.25;;;;;;;;;;5055139;28;20039;-21
2023/06/30 02:11:09;;;;;;;6.63;6.00;;;;;;;;;;5054929;28;20104;-22
2023/06/30 02:13:35;;;;;;;8.38;6.28;;;;;;;;;;5055033;28;20095;-23
2023/06/30 02:16:01;;;;;;;7.80;6.97;;;;;;;;;;5054942;28;20036;-22
2023/06/30 02:18:27;;;;;;;6.45;5.93;;;;;;;;;;5037249;28;20021;-24
2023/06/30 02:20:54;;;;;;;6.22;5.68;;;;;;;;;;5055259;28;20041;-23
2023/06/30 02:23:20;;;;;;;7.68;6.38;;;;;;;;;;5054620;28;20028;-23
2023/06/30 02:25:46;;;;;;;6.38;5.55;;;;;;;;;;5054951;28;20380;-22
2023/06/30 02:28:12;;;;;;;5.88;5.38;;;;;;;;;;5054872;28;20029;-23
2023/06/30 02:30:38;;;;;;;8.18;6.10;;;;;;;;;;5054576;28;20029;-22
2023/06/30 02:33:05;;;;;;;7.30;6.68;;;;;;;;;;5054595;28;20090;-21
2023/06/30 02:35:31;;;;;;;8.88;5.75;;;;;;;;;;5054438;28;20096;-21
2023/06/30 02:37:57;;;;;;;12.75;6.97;;;;;;;;;;5054808;28;20021;-22
2023/06/30 02:40:25;;;;;;;6.78;6.18;;;;;;;;;;5055291;28;20490;-23
2023/06/30 02:42:52;;;;;;;6.80;6.30;;;;;;;;;;5054323;28;20100;-23
2023/06/30 02:45:18;;;;;;;9.00;6.00;;;;;;;;;;5055021;28;20033;-23
2023/06/30 02:47:44;;;;;;;6.32;5.45;;;;;;;;;;5054720;28;20028;-23
2023/06/30 02:50:10;;;;;;;6.22;5.72;;;;;;;;;;5054655;28;20029;-22
2023/06/30 02:52:36;;;;;;;6.63;6.03;;;;;;;;;;5054586;28;20052;-23
2023/06/30 02:55:03;;;;;;;7.25;6.53;;;;;;;;;;5054300;28;20090;-22
2023/06/30 02:57:29;;;;;;;9.50;5.95;;;;;;;;;;5056522;28;20029;-23
2023/06/30 02:59:55;;;;;;;6.43;5.93;;;;;;;;;;5058690;28;20028;-23
2023/06/30 03:02:21;;;;;;;6.63;5.95;;;;;;;;;;5058085;28;20060;-22
2023/06/30 03:04:47;;;;;;;6.40;5.82;;;;;;;;;;5058911;28;20436;-23
2023/06/30 03:07:14;;;;;;;6.07;5.57;;;;;;;;;;5058290;28;20525;-22
2023/06/30 03:09:40;;;;;;;5.63;5.13;;;;;;;;;;5058492;28;20025;-22
2023/06/30 03:12:06;;;;;;;6.95;5.95;;;;;;;;;;5058330;28;20029;-23
2023/06/30 03:14:32;;;;;;;6.80;6.18;;;;;;;;;;5058154;28;20029;-23
2023/06/30 03:16:58;;;;;;;8.98;5.32;;;;;;;;;;5058255;28;20036;-23
2023/06/30 03:19:24;;;;;;;7.35;6.15;;;;;;;;;;5058558;28;20036;-22
2023/06/30 03:21:51;;;;;;;6.72;6.13;;;;;;;;;;5057845;28;20025;-23
2023/06/30 03:24:17;;;;;;;6.85;6.18;;;;;;;;;;5057961;28;20040;-22
2023/06/30 03:26:43;;;;;;;6.60;6.00;;;;;;;;;;5058172;28;20419;-22
2023/06/30 03:29:09;;;;;;;6.90;6.28;;;;;;;;;;5058097;28;20056;-22
2023/06/30 03:31:35;;;;;;;6.10;5.60;;;;;;;;;;5057750;28;20087;-22
2023/06/30 03:34:01;;;;;;;7.28;6.65;;;;;;;;;;5057659;28;20360;-23
2023/06/30 03:36:27;;;;;;;5.55;5.05;;;;;;;;;;5057631;28;20036;-23
2023/06/30 03:38:53;;;;;;;6.80;6.15;;;;;;;;;;5057872;28;20036;-23
2023/06/30 03:41:20;;;;;;;5.90;5.35;;;;;;;;;;5057591;28;20102;-22
2023/06/30 03:43:46;;;;;;;8.43;5.75;;;;;;;;;;5057506;28;20021;-23
2023/06/30 03:46:12;;;;;;;6.25;5.75;;;;;;;;;;5057469;28;20025;-23
2023/06/30 03:48:38;;;;;;;6.25;5.65;;;;;;;;;;5057382;28;20036;-23
2023/06/30 03:51:04;;;;;;;5.90;5.07;;;;;;;;;;5057402;28;20033;-23
2023/06/30 03:53:30;;;;;;;6.47;5.88;;;;;;;;;;5057272;28;20090;-23
2023/06/30 03:55:58;;;;;;;5.68;5.28;;;;;;;;;;5057493;28;20052;-23
2023/06/30 03:58:24;;;;;;;5.35;4.85;;;;;;;;;;5057168;28;20052;-22
2023/06/30 04:00:50;;;;;;;7.03;5.50;;;;;;;;;;5057190;28;20455;-23
2023/06/30 04:03:16;;;;;;;6.32;5.72;;;;;;;;;;5056999;28;20415;-23
2023/06/30 04:05:43;;;;;;;5.82;5.15;;;;;;;;;;5057345;28;20108;-23
2023/06/30 04:08:09;;;;;;;5.75;5.20;;;;;;;;;;5056627;28;20087;-22
2023/06/30 04:10:35;;;;;;;6.65;6.15;;;;;;;;;;5057351;28;20037;-23
2023/06/30 04:13:01;;;;;;;5.20;4.70;;;;;;;;;;5056866;28;20033;-21
2023/06/30 04:15:27;;;;;;;6.47;5.43;;;;;;;;;;5057177;28;20467;-22
2023/06/30 04:17:53;;;;;;;6.50;5.78;;;;;;;;;;5056703;28;20025;-23
2023/06/30 04:20:19;;;;;;;5.28;4.78;;;;;;;;;;5056792;28;20025;-23
2023/06/30 04:22:45;;;;;;;5.88;5.38;;;;;;;;;;5056524;28;20025;-23
2023/06/30 04:25:11;;;;;;;7.75;5.55;;;;;;;;;;5056846;28;20021;-22
2023/06/30 04:27:37;;;;;;;6.57;4.72;;;;;;;;;;5056642;28;20032;-23
2023/06/30 04:30:04;;;;;;;10.93;5.80;;;;;;;;;;5056954;28;20021;-22
2023/06/30 04:32:30;;;;;;;5.50;4.82;;;;;;;;;;5056535;28;20036;-23
2023/06/30 04:34:58;;;;;;;9.90;5.78;;;;;;;;;;5056819;28;20017;-22
2023/06/30 04:37:24;;;;;;;6.00;5.13;;;;;;;;;;5056705;28;20059;-22
2023/06/30 04:39:50;;;;;;;8.43;5.25;;;;;;;;;;5056404;28;20029;-24
2023/06/30 04:42:16;;;;;;;5.65;5.07;;;;;;;;;;5056563;28;20440;-24
2023/06/30 04:44:42;;;;;;;13.27;5.15;;;;;;;;;;5056540;28;20025;-22
2023/06/30 04:47:08;;;;;;;8.20;5.38;;;;;;;;;;5056331;28;20099;-23
2023/06/30 04:49:35;;;;;;;6.70;6.00;;;;;;;;;;5038701;28;20041;-22
2023/06/30 04:52:01;;;;;;;16.35;5.43;;;;;;;;;;5056094;28;20064;-22
2023/06/30 04:54:27;;;;;;;14.82;5.53;;;;;;;;;;5056142;28;20025;-22
2023/06/30 04:56:53;;;;;;;6.53;5.78;;;;;;;;;;5056260;28;20028;-23
2023/06/30 04:59:19;;;;;;;9.18;5.50;;;;;;;;;;5056337;28;20017;-22
2023/06/30 05:01:45;;;;;;;4.85;4.43;;;;;;;;;;5056479;28;20079;-22
2023/06/30 05:04:11;;;;;;;8.25;5.53;;;;;;;;;;5055848;28;20115;-22
2023/06/30 05:06:37;;;;;;;5.82;5.32;;;;;;;;;;5056273;28;20360;-23
2023/06/30 05:09:03;;;;;;;5.75;5.18;;;;;;;;;;5038358;28;20031;-23
2023/06/30 05:11:29;;;;;;;8.68;5.50;;;;;;;;;;5055854;28;20032;-22
2023/06/30 05:13:56;;;;;;;5.85;5.35;;;;;;;;;;5055776;28;20029;-23
2023/06/30 05:16:22;;;;;;;7.40;4.95;;;;;;;;;;5055659;28;20043;-23
2023/06/30 05:18:48;;;;;;;6.20;4.53;;;;;;;;;;5055568;28;20028;-23
2023/06/30 05:21:14;;;;;;;6.45;4.95;;;;;;;;;;5055386;28;20017;-22
2023/06/30 05:23:40;;;;;;;6.15;5.32;;;;;;;;;;5055487;28;20033;-23
2023/06/30 05:26:06;;;;;;;6.78;4.75;;;;;;;;;;5055794;28;20036;-23
2023/06/30 05:28:35;;;;;;;7.97;4.57;;;;;;;;;;5055653;28;20359;-24
2023/06/30 05:31:01;;;;;;;5.72;4.60;;;;;;;;;;5055264;28;20029;-22
2023/06/30 05:33:27;;;;;;;7.78;4.63;;;;;;;;;;5055269;28;20057;-23
2023/06/30 05:35:53;;;;;;;6.88;4.97;;;;;;;;;;5037659;28;20124;-25
2023/06/30 05:38:20;;;;;;;5.97;5.22;;;;;;;;;;5055261;28;20122;-22
2023/06/30 05:40:46;;;;;;;7.13;5.75;;;;;;;;;;5055521;28;20294;-22
2023/06/30 05:43:12;;;;;;;8.00;5.28;;;;;;;;;;5055069;28;20403;-21
2023/06/30 05:45:39;;;;;;;5.55;4.65;;;;;;;;;;5055297;28;20025;-22
2023/06/30 05:48:05;;;;;;;6.30;5.38;;;;;;;;;;5056174;28;20021;-23
2023/06/30 05:50:31;;;;;;;4.97;4.15;;;;;;;;;;5055509;28;20459;-22
2023/06/30 05:52:57;;;;;;;5.28;4.85;;;;;;;;;;5055027;28;20032;-23
2023/06/30 05:55:23;;;;;;;5.45;4.95;;;;;;;;;;5055018;28;20056;-24
2023/06/30 05:57:49;;;;;;;4.82;4.22;;;;;;;;;;5054943;28;20048;-23
2023/06/30 06:00:16;;;;;;;5.72;5.10;;;;;;;;;;5054907;28;20086;-23
2023/06/30 06:02:42;;;;;;;6.00;4.93;;;;;;;;;;5054786;28;20036;-23
2023/06/30 06:05:08;;;;;;;5.53;4.88;;;;;;;;;;5055145;28;20021;-23
2023/06/30 06:07:34;;;;;;;8.93;5.03;;;;;;;;;;5055265;28;20029;-23
2023/06/30 06:10:01;;;;;;;6.80;4.95;;;;;;;;;;5037255;28;20024;-21
2023/06/30 06:12:27;;;;;;;6.72;4.18;;;;;;;;;;5054725;28;20024;-22
2023/06/30 06:14:53;;;;;;;8.20;4.93;;;;;;;;;;5055193;28;20079;-21
2023/06/30 06:17:19;;;;;;;5.50;4.85;;;;;;;;;;5054633;28;20056;-22
2023/06/30 06:19:45;;;;;;;6.43;4.38;;;;;;;;;;5020713;28;20029;-23
2023/06/30 06:22:11;;;;;;;6.82;4.10;;;;;;;;;;5054558;28;20021;-23
2023/06/30 06:24:37;;;;;;;9.05;4.10;;;;;;;;;;5054855;28;20025;-22
2023/06/30 06:27:04;;;;;;;5.70;4.82;;;;;;;;;;5054778;28;20024;-23
2023/06/30 06:29:30;;;;;;;10.73;5.20;;;;;;;;;;5054786;28;20047;-23
2023/06/30 06:31:56;;;;;;;8.18;4.35;;;;;;;;;;5054389;28;20029;-23
2023/06/30 06:34:22;;;;;;;8.52;4.78;;;;;;;;;;5054452;28;20029;-22
2023/06/30 06:36:48;;;;;;;5.28;4.43;;;;;;;;;;5054406;28;20036;-23
2023/06/30 06:39:14;;;;;;;6.18;3.83;;;;;;;;;;5054336;28;20028;-23
2023/06/30 06:41:40;;;;;;;7.75;5.18;;;;;;;;;;5054299;28;20415;-24
2023/06/30 06:44:07;;;;;;;5.18;4.03;;;;;;;;;;5054436;28;20029;-23
2023/06/30 06:46:33;;;;;;;5.03;4.38;;;;;;;;;;5054243;28;20471;-23
2023/06/30 06:48:59;;;;;;;4.75;4.30;;;;;;;;;;5054625;28;20037;-22
2023/06/30 06:51:25;;;;;;;8.10;6.28;;;;;;;;;;5054458;28;20036;-21
2023/06/30 06:53:54;;;;;;;5.78;4.32;;;;;;;;;;5054074;28;20026;-23
2023/06/30 06:56:21;;;;;;;7.28;4.95;;;;;;;;;;5054112;28;20359;-22
2023/06/30 06:58:47;;;;;;;6.05;4.50;;;;;;;;;;5054217;28;20029;-23
2023/06/30 07:01:13;;;;;;;7.18;5.13;;;;;;;;;;5054517;28;20376;-23
2023/06/30 07:03:39;;;;;;;6.75;4.90;;;;;;;;;;5053799;28;20049;-23
2023/06/30 07:06:06;;;;;;;4.65;4.15;;;;;;;;;;5054009;28;20120;-22
2023/06/30 07:08:35;;;;;;;8.30;5.70;;;;;;;;;;5054001;28;20025;-23
2023/06/30 07:11:02;;;;;;;5.15;4.15;;;;;;;;;;5054567;28;20024;-23
2023/06/30 07:13:29;;;;;;;14.40;5.03;;;;;;;;;;5053821;28;20486;-23
2023/06/30 07:15:55;;;;;;;10.30;4.88;;;;;;;;;;5054276;28;20036;-22
2023/06/30 07:18:21;;;;;;;5.45;4.45;;;;;;;;;;5053995;28;20052;-23
2023/06/30 07:20:48;;;;;;;5.60;4.32;;;;;;;;;;5054330;28;20100;-24
2023/06/30 07:23:14;;;;;;;5.53;4.20;;;;;;;;;;5053991;28;20345;-25
2023/06/30 07:25:40;;;;;;;13.65;4.93;;;;;;;;;;5054282;28;20049;-23
2023/06/30 07:28:06;;;;;;;5.03;4.20;;;;;;;;;;5054244;28;20454;-22
2023/06/30 07:30:32;;;;;;;4.85;4.38;;;;;;;;;;5053866;28;20025;-22
2023/06/30 07:32:58;;;;;;;5.63;4.35;;;;;;;;;;5053877;28;20097;-23
2023/06/30 07:35:25;;;;;;;11.50;4.68;;;;;;;;;;5053971;28;20069;-21
2023/06/30 07:37:51;;;;;;;7.90;4.05;;;;;;;;;;5053765;28;20025;-24
2023/06/30 07:40:18;;;;;;;6.18;4.45;;;;;;;;;;5054124;28;20025;-22
2023/06/30 07:42:44;;;;;;;4.68;4.18;;;;;;;;;;5036960;28;20017;-22
2023/06/30 07:45:14;;;;;;;7.30;4.45;;;;;;;;;;5057713;28;20029;-23
2023/06/30 07:47:42;;;;;;;5.15;4.68;;;;;;;;;;5057618;28;20371;-22
2023/06/30 07:50:12;;;;;;;6.00;3.97;;;;;;;;;;5057916;28;20418;-21
2023/06/30 07:52:43;;;;;;;6.10;4.15;;;;;;;;;;5057195;28;20090;-22
2023/06/30 07:55:10;;;;;;;5.03;4.45;;;;;;;;;;5039719;28;20025;-22
2023/06/30 07:57:36;;;;;;;4.70;4.03;;;;;;;;;;5057499;28;20090;-21
2023/06/30 08:00:03;;;;;;;4.57;4.00;;;;;;;;;;5057413;28;20408;-23
2023/06/30 08:02:29;;;;;;;4.30;4.00;;;;;;;;;;5057094;28;20041;-23
2023/06/30 08:04:55;;;;;;;4.75;4.22;;;;;;;;;;5057388;28;20028;-23
2023/06/30 08:07:21;;;;;;;6.63;4.97;;;;;;;;;;5039496;28;20036;-18
2023/06/30 08:09:48;;;;;;;6.80;4.57;;;;;;;;;;5057335;28;20352;-21
2023/06/30 08:12:14;;;;;;;5.38;4.88;;;;;;;;;;5056875;28;20025;-19
2023/06/30 08:14:40;;;;;;;6.35;4.35;;;;;;;;;;5039921;28;20025;-24
2023/06/30 08:17:06;;;;;;;9.15;4.20;;;;;;;;;;5056840;28;20024;-23
2023/06/30 08:19:32;;;;;;;11.50;5.32;;;;;;;;;;5057091;28;20082;-23
2023/06/30 08:22:01;;;;;;;15.75;5.32;;;;;;;;;;5057040;28;20021;-20
2023/06/30 08:24:27;;;;;;;14.35;5.00;;;;;;;;;;5056731;28;20021;-22
2023/06/30 08:26:53;;;;;;;11.10;4.22;;;;;;;;;;5056952;28;20025;-24
2023/06/30 08:29:19;;;;;;;14.95;4.93;;;;;;;;;;5038998;28;20052;-21
2023/06/30 08:31:45;;;;;;;7.82;4.43;;;;;;;;;;5056771;28;20025;-21
2023/06/30 08:34:11;;;;;;;10.98;4.07;;;;;;;;;;5056516;28;20028;-19
2023/06/30 08:36:38;;;;;;;6.03;4.00;;;;;;;;;;5056616;28;20029;-20
2023/06/30 08:39:04;;;;;;;7.55;4.88;;;;;;;;;;5056730;28;20032;-20
2023/06/30 08:41:30;;;;;;;4.28;3.92;;;;;;;;;;5056444;28;20108;-20
2023/06/30 08:43:57;;;;;;;7.70;4.10;;;;;;;;;;5056359;28;20091;-19
2023/06/30 08:46:23;;;;;;;5.10;4.68;;;;;;;;;;5055930;28;20116;-21
2023/06/30 08:48:50;;;;;;;8.43;4.65;;;;;;;;;;5056532;28;20317;-20
2023/06/30 08:51:16;;;;;;;4.95;4.00;;;;;;;;;;5056244;28;20100;-21
2023/06/30 08:53:43;;;;;;;7.75;4.53;;;;;;;;;;5055729;28;20029;-22
2023/06/30 08:56:09;;;;;;;9.35;4.90;;;;;;;;;;5055474;28;20029;-20
2023/06/30 08:58:37;;;;;;;5.50;4.47;;;;;;;;;;5056127;28;20025;-23
2023/06/30 09:01:03;;;;;;;5.30;4.15;;;;;;;;;;5056009;28;20053;-21
2023/06/30 09:03:30;;;;;;;5.90;4.03;;;;;;;;;;5055866;28;20037;-25
2023/06/30 09:06:00;;;;;;;5.75;4.82;;;;;;;;;;5056009;28;20360;-21
2023/06/30 09:08:41;;;;;;;5.95;4.38;;;;;;;;;;5056173;28;20025;-18
2023/06/30 09:11:08;;;;;;;7.70;4.45;;;;;;;;;;5056213;28;20436;-18
2023/06/30 09:13:36;;;;;;;7.00;4.10;;;;;;;;;;5055977;28;20067;-18
2023/06/30 09:16:06;;;;;;;6.88;5.05;;;;;;;;;;5055652;28;20032;-20
2023/06/30 09:18:33;;;;;;;5.37;4.93;;;;;;;;;;5055978;28;20025;-19
2023/06/30 09:21:00;;;;;;;6.25;4.50;;;;;;;;;;5055675;28;20247;-21
2023/06/30 09:23:27;;;;;;;5.28;4.70;;;;;;;;;;5055644;28;20451;-18
2023/06/30 09:25:53;;;;;;;5.43;4.15;;;;;;;;;;5055811;28;20103;-19
2023/06/30 09:28:19;;;;;;;5.75;4.47;;;;;;;;;;5055514;28;20025;-20
2023/06/30 09:30:46;;;;;;;5.40;4.28;;;;;;;;;;5055887;28;20032;-20
2023/06/30 09:33:16;;;;;;;10.70;4.40;;;;;;;;;;5037642;28;20464;-23
2023/06/30 09:35:43;;;;;;;10.63;4.25;;;;;;;;;;5055051;28;20517;-20
2023/06/30 09:38:13;;;;;;;5.25;4.57;;;;;;;;;;5055334;28;20071;-20
2023/06/30 09:40:43;;;;;;;5.00;4.50;;;;;;;;;;5055226;28;20025;-19
2023/06/30 09:43:15;;;;;;;6.00;4.97;;;;;;;;;;5055301;28;20031;-21
2023/06/30 09:45:43;;;;;;;4.40;4.00;;;;;;;;;;5055468;28;20024;-20
2023/06/30 09:48:11;;;;;;;7.82;4.47;;;;;;;;;;5055129;28;20068;-19
2023/06/30 09:50:37;;;;;;;5.75;4.28;;;;;;;;;;5055159;28;20032;-20
2023/06/30 09:53:04;;;;;;;3.75;3.45;;;;;;;;;;5054865;28;20029;-21
2023/06/30 09:55:30;;;;;;;5.65;3.80;;;;;;;;;;5055020;28;20024;-23
2023/06/30 09:57:56;;;;;;;9.52;4.38;;;;;;;;;;5054961;28;20515;-18
2023/06/30 10:00:24;;;;;;;8.60;3.92;;;;;;;;;;5054871;28;20063;-21
2023/06/30 10:03:02;;;;;;;4.85;4.30;;;;;;;;;;5054692;28;20423;-20
2023/06/30 10:05:28;;;;;;;6.20;4.30;;;;;;;;;;5054582;28;20035;-18
2023/06/30 10:07:55;;;;;;;4.00;3.60;;;;;;;;;;5054774;28;20060;-22
2023/06/30 10:10:21;;;;;;;7.10;4.18;;;;;;;;;;5054974;28;20040;-23
2023/06/30 10:12:49;;;;;;;6.63;4.25;;;;;;;;;;5054664;28;20041;-20
2023/06/30 10:15:15;;;;;;;8.95;4.22;;;;;;;;;;5055101;28;20428;-22
2023/06/30 10:17:43;;;;;;;6.15;4.22;;;;;;;;;;5037349;28;20444;-20
2023/06/30 10:20:10;;;;;;;6.32;4.32;;;;;;;;;;5054487;28;20344;-21
2023/06/30 10:22:37;;;;;;;5.50;4.35;;;;;;;;;;5054712;28;20087;-20
2023/06/30 10:25:05;;;;;;;4.45;3.90;;;;;;;;;;5054460;28;20016;-20
2023/06/30 10:27:34;;;;;;;6.10;4.45;;;;;;;;;;5054345;28;20029;-20
2023/06/30 10:30:00;;;;;;;6.20;3.92;;;;;;;;;;5054443;28;20052;-20
2023/06/30 10:32:26;;;;;;;9.45;4.88;;;;;;;;;;5054340;28;20021;-18
2023/06/30 10:34:53;;;;;;;6.07;4.68;;;;;;;;;;5054787;28;20098;-27
2023/06/30 10:37:19;;;;;;;6.50;3.78;;;;;;;;;;5054227;28;20068;-24
2023/06/30 10:39:46;;;;;;;5.45;4.18;;;;;;;;;;5054485;28;20051;-21
2023/06/30 10:42:13;;;;;;;7.05;3.88;;;;;;;;;;5054168;28;20440;-20
2023/06/30 10:44:46;;;;;;;4.50;4.10;;;;;;;;;;5054408;28;20021;-22
2023/06/30 10:47:12;;;;;;;4.72;4.25;;;;;;;;;;5054084;28;20439;-18
2023/06/30 10:49:39;;;;;;;3.47;3.17;;;;;;;;;;5054246;28;20021;-20
2023/06/30 10:52:09;;;;;;;9.57;4.22;;;;;;;;;;5036509;28;20439;-20
2023/06/30 10:54:38;;;;;;;6.90;4.43;;;;;;;;;;5036503;28;20329;-21
2023/06/30 10:57:14;;;;;;;8.63;4.70;;;;;;;;;;5054296;28;20039;-20
2023/06/30 10:59:44;;;;;;;6.63;4.15;;;;;;;;;;5054353;28;20032;-22
2023/06/30 11:02:11;;;;;;;7.47;4.47;;;;;;;;;;5054429;28;20396;-20
2023/06/30 11:04:38;;;;;;;5.78;4.40;;;;;;;;;;5054119;28;20032;-20
2023/06/30 11:07:06;;;;;;;6.93;3.58;;;;;;;;;;5054075;28;20123;-22
2023/06/30 11:09:47;;;;;;;15.20;4.63;;;;;;;;;;5054109;28;20021;-19
2023/06/30 11:12:37;;;;;;;5.85;4.63;;;;;;;;;;5054367;28;20399;-20
2023/06/30 11:15:03;;;;;;;4.20;3.80;;;;;;;;;;5024627;28;20448;-18
2023/06/30 11:17:56;;;;;;;9.27;4.50;;;;;;;;;;5054659;28;20130;-22
2023/06/30 11:20:26;;;;;;;7.60;4.13;;;;;;;;;;5053536;28;20064;-19
2023/06/30 11:22:56;;;;;;;6.45;4.15;;;;;;;;;;5058007;28;20104;-18
2023/06/30 11:25:22;;;;;;;7.78;4.53;;;;;;;;;;5057921;28;20032;-21
2023/06/30 11:27:48;;;;;;;4.60;4.10;;;;;;;;;;5057813;28;20025;-20
2023/06/30 11:30:18;;;;;;;7.80;3.63;;;;;;;;;;5057754;28;20032;-19
2023/06/30 11:32:46;;;;;;;7.43;4.63;;;;;;;;;;5057678;28;20027;-18
2023/06/30 11:35:13;;;;;;;8.57;4.85;;;;;;;;;;5058229;28;20021;-20
2023/06/30 11:37:39;;;;;;;6.40;3.97;;;;;;;;;;5040042;28;20025;-18
2023/06/30 11:40:06;;;;;;;7.60;4.38;;;;;;;;;;5057547;28;20025;-21
2023/06/30 11:42:35;;;;;;;9.43;4.90;;;;;;;;;;5057495;28;20452;-24
2023/06/30 11:45:01;;;;;;;7.85;4.07;;;;;;;;;;5057743;28;20052;-22
2023/06/30 11:47:28;;;;;;;6.97;4.55;;;;;;;;;;5057398;28;20083;-20
2023/06/30 11:49:54;;;;;;;6.78;4.38;;;;;;;;;;5057251;28;20108;-18
2023/06/30 11:52:20;;;;;;;8.90;4.00;;;;;;;;;;5057560;28;20025;-23
2023/06/30 11:54:46;;;;;;;7.05;4.32;;;;;;;;;;5057303;28;20036;-21
2023/06/30 11:57:13;;;;;;;15.32;4.95;;;;;;;;;;5039623;28;20021;-21
2023/06/30 11:59:39;;;;;;;8.07;4.25;;;;;;;;;;5057195;28;20025;-22
2023/06/30 12:02:05;;;;;;;11.45;4.38;;;;;;;;;;5057147;28;20082;-20
2023/06/30 12:04:35;;;;;;;8.65;4.20;;;;;;;;;;5056989;28;20055;-19
2023/06/30 12:07:05;;;;;;;6.88;5.03;;;;;;;;;;5057090;28;20451;-24
2023/06/30 12:09:34;;;;;;;7.82;4.70;;;;;;;;;;5057467;28;20441;-20
2023/06/30 12:12:01;;;;;;;12.10;5.07;;;;;;;;;;5056920;28;20033;-18
2023/06/30 12:14:28;;;;;;;9.57;4.50;;;;;;;;;;5056845;28;20095;-22
2023/06/30 12:16:55;;;;;;;12.13;4.57;;;;;;;;;;5057001;28;20371;-17
2023/06/30 12:19:25;;;;;;;7.18;4.60;;;;;;;;;;5056850;28;20474;-21
2023/06/30 12:21:52;;;;;;;4.68;4.05;;;;;;;;;;5056690;28;20143;-20
2023/06/30 12:24:19;;;;;;;8.50;4.35;;;;;;;;;;5056819;28;20021;-19
2023/06/30 12:26:46;;;;;;;11.15;4.40;;;;;;;;;;5057009;28;20222;-21
2023/06/30 12:29:12;;;;;;;4.85;4.32;;;;;;;;;;5056417;28;20025;-20
2023/06/30 12:31:41;;;;;;;9.18;3.72;;;;;;;;;;5056611;28;20399;-20
2023/06/30 12:34:07;;;;;;;14.30;3.97;;;;;;;;;;5056773;28;20351;-19
2023/06/30 12:36:33;;;;;;;10.60;4.82;;;;;;;;;;5039087;28;20029;-21
2023/06/30 12:39:00;;;;;;;9.65;4.40;;;;;;;;;;5056944;28;20033;-20
2023/06/30 12:41:26;;;;;;;9.05;3.92;;;;;;;;;;5056681;28;20032;-18
2023/06/30 12:43:53;;;;;;;7.85;4.97;;;;;;;;;;5056333;28;20017;-18
2023/06/30 12:46:20;;;;;;;12.05;5.22;;;;;;;;;;5056586;28;20467;-19
2023/06/30 12:48:46;;;;;;;8.50;4.05;;;;;;;;;;5056535;28;20365;-19
2023/06/30 12:51:12;;;;;;;6.82;3.83;;;;;;;;;;5056158;28;20033;-19
2023/06/30 12:53:38;;;;;;;7.93;4.57;;;;;;;;;;5056198;28;20029;-19
2023/06/30 12:56:04;;;;;;;8.30;4.38;;;;;;;;;;5056307;28;20021;-22
2023/06/30 12:58:30;;;;;;;6.40;4.10;;;;;;;;;;5038465;28;20032;-22
2023/06/30 13:01:00;;;;;;;5.63;3.88;;;;;;;;;;5056229;28;20025;-23
2023/06/30 13:03:32;;;;;;;4.95;3.10;;;;;;;;;;5024417;28;20072;-20
2023/06/30 13:05:58;;;;;;;10.80;4.38;;;;;;;;;;5016468;28;20026;-19
2023/06/30 13:08:24;;;;;;;8.38;4.45;;;;;;;;;;5016486;28;20037;-22
2023/06/30 13:10:51;;;;;;;12.48;4.20;;;;;;;;;;5016377;28;20100;-20
2023/06/30 13:13:17;;;;;;;10.38;5.25;;;;;;;;;;5016000;28;20022;-21
2023/06/30 13:15:43;;;;;;;6.75;4.57;;;;;;;;;;5014751;28;20030;-20
2023/06/30 13:18:10;;;;;;;7.65;3.70;;;;;;;;;;5015863;28;20445;-22
2023/06/30 13:20:36;;;;;;;8.25;3.50;;;;;;;;;;5015956;28;20033;-21
2023/06/30 13:23:02;;;;;;;8.98;4.35;;;;;;;;;;5016010;28;20026;-20
2023/06/30 13:25:29;;;;;;;16.80;5.93;;;;;;;;;;5015796;28;20022;-20
2023/06/30 13:27:55;;;;;;;9.10;3.60;;;;;;;;;;5015987;28;20060;-23
2023/06/30 13:30:22;;;;;;;8.82;4.07;;;;;;;;;;5015700;28;20225;-17
2023/06/30 13:32:48;;;;;;;4.78;4.15;;;;;;;;;;5014619;28;20021;-21
2023/06/30 13:35:14;;;;;;;6.25;3.70;;;;;;;;;;5016247;28;20022;-24
2023/06/30 13:37:40;;;;;;;12.75;5.18;;;;;;;;;;5015573;28;20057;-24
2023/06/30 13:40:07;;;;;;;8.98;4.45;;;;;;;;;;5015213;28;20026;-21
2023/06/30 13:42:34;;;;;;;10.02;3.90;;;;;;;;;;5015333;28;20028;-20
2023/06/30 13:45:00;;;;;;;4.70;3.60;;;;;;;;;;5015380;28;20061;-20
2023/06/30 13:47:26;;;;;;;9.40;3.95;;;;;;;;;;5015392;28;20065;-20
2023/06/30 13:49:52;;;;;;;12.52;3.83;;;;;;;;;;5015735;28;20033;-23
2023/06/30 13:52:19;;;;;;;7.50;4.05;;;;;;;;;;5015499;28;20037;-20
2023/06/30 13:54:45;;;;;;;9.13;3.78;;;;;;;;;;5015518;28;20037;-23
2023/06/30 13:57:12;;;;;;;8.90;3.78;;;;;;;;;;5015125;28;20034;-20
2023/06/30 13:59:38;;;;;;;6.00;3.47;;;;;;;;;;5015275;28;20334;-21
2023/06/30 14:02:04;;;;;;;5.70;3.65;;;;;;;;;;5015381;28;20030;-21
2023/06/30 14:04:30;;;;;;;6.47;3.67;;;;;;;;;;5053482;28;20510;-21
2023/06/30 14:06:56;;;;;;;9.63;4.38;;;;;;;;;;5055032;28;20384;-25
2023/06/30 14:09:23;;;;;;;9.30;3.90;;;;;;;;;;5055628;28;20371;-17
2023/06/30 14:11:49;;;;;;;16.95;5.10;;;;;;;;;;5054879;28;20377;-20
2023/06/30 14:14:15;;;;;;;10.27;4.55;;;;;;;;;;5036867;28;20471;-23
2023/06/30 14:16:42;;;;;;;9.65;3.72;;;;;;;;;;5054761;28;20057;-20
2023/06/30 14:19:08;;;;;;;8.00;3.88;;;;;;;;;;5054447;28;20021;-19
2023/06/30 14:21:34;;;;;;;6.15;3.83;;;;;;;;;;5054530;28;20028;-22
2023/06/30 14:24:00;;;;;;;7.82;3.97;;;;;;;;;;5054084;28;20025;-25
2023/06/30 14:26:26;;;;;;;8.52;3.53;;;;;;;;;;5054702;28;20302;-20
2023/06/30 14:28:53;;;;;;;10.93;4.32;;;;;;;;;;5054663;28;20111;-20
2023/06/30 14:31:19;;;;;;;17.75;4.18;;;;;;;;;;5054586;28;20025;-20
2023/06/30 14:33:45;;;;;;;6.82;4.22;;;;;;;;;;5054238;28;20364;-20
2023/06/30 14:36:11;;;;;;;4.43;4.03;;;;;;;;;;5054482;28;20033;-17
2023/06/30 14:38:38;;;;;;;9.60;4.53;;;;;;;;;;5054758;28;20044;-20